sensor_id;sensor_type;location;lat;lon;timestamp;pressure;altitude;pressure_sealevel;temperature;humidity
8697;BME280;4385;48.848;8.924;2023-02-11T00:01:56;99365.88;;;12.81;100.00
8697;BME280;4385;48.848;8.924;2023-02-11T00:04:24;99366.78;;;12.83;100.00
8697;BME280;4385;48.848;8.924;2023-02-11T00:06:49;99365.94;;;12.83;100.00
8697;BME280;4385;48.848;8.924;2023-02-11T00:09:14;99361.72;;;12.83;100.00
8697;BME280;4385;48.848;8.924;2023-02-11T00:11:39;99366.78;;;12.83;100.00
8697;BME280;4385;48.848;8.924;2023-02-11T00:14:06;99365.09;;;12.82;100.00
8697;BME280;4385;48.848;8.924;2023-02-11T00:16:32;99368.47;;;12.83;100.00
8697;BME280;4385;48.848;8.924;2023-02-11T00:18:59;99363.34;;;12.81;100.00
8697;BME280;4385;48.848;8.924;2023-02-11T00:21:25;99364.16;;;12.80;100.00
8697;BME280;4385;48.848;8.924;2023-02-11T00:23:51;99362.41;;;12.78;100.00
8697;BME280;4385;48.848;8.924;2023-02-11T00:26:18;99356.44;;;12.76;100.00
8697;BME280;4385;48.848;8.924;2023-02-11T00:28:44;99347.88;;;12.72;100.00
8697;BME280;4385;48.848;8.924;2023-02-11T00:31:11;99347.00;;;12.70;100.00
8697;BME280;4385;48.848;8.924;2023-02-11T00:33:37;99348.59;;;12.68;100.00
8697;BME280;4385;48.848;8.924;2023-02-11T00:36:04;99351.88;;;12.64;100.00
8697;BME280;4385;48.848;8.924;2023-02-11T00:38:29;99354.41;;;12.64;100.00
8697;BME280;4385;48.848;8.924;2023-02-11T00:40:54;99354.41;;;12.64;100.00
8697;BME280;4385;48.848;8.924;2023-02-11T00:43:20;99356.94;;;12.64;100.00
8697;BME280;4385;48.848;8.924;2023-02-11T00:45:45;99356.16;;;12.66;100.00
8697;BME280;4385;48.848;8.924;2023-02-11T00:48:10;99353.66;;;12.68;100.00
8697;BME280;4385;48.848;8.924;2023-02-11T00:50:35;99357.91;;;12.69;100.00
8697;BME280;4385;48.848;8.924;2023-02-11T00:53:01;99361.34;;;12.71;100.00
8697;BME280;4385;48.848;8.924;2023-02-11T00:55:26;99358.00;;;12.72;100.00
8697;BME280;4385;48.848;8.924;2023-02-11T00:57:51;99358.91;;;12.74;100.00
8697;BME280;4385;48.848;8.924;2023-02-11T01:00:17;99358.09;;;12.75;100.00
8697;BME280;4385;48.848;8.924;2023-02-11T01:02:42;99350.56;;;12.77;100.00
8697;BME280;4385;48.848;8.924;2023-02-11T01:05:07;99343.88;;;12.79;100.00
8697;BME280;4385;48.848;8.924;2023-02-11T01:07:32;99337.13;;;12.78;100.00
8697;BME280;4385;48.848;8.924;2023-02-11T01:09:58;99335.41;;;12.78;100.00
8697;BME280;4385;48.848;8.924;2023-02-11T01:12:23;99331.19;;;12.77;100.00
8697;BME280;4385;48.848;8.924;2023-02-11T01:14:49;99337.06;;;12.76;100.00
8697;BME280;4385;48.848;8.924;2023-02-11T01:17:15;99331.13;;;12.76;100.00
8697;BME280;4385;48.848;8.924;2023-02-11T01:19:40;99329.47;;;12.76;100.00
8697;BME280;4385;48.848;8.924;2023-02-11T01:22:06;99322.63;;;12.74;100.00
8697;BME280;4385;48.848;8.924;2023-02-11T01:24:31;99316.72;;;12.73;100.00
8697;BME280;4385;48.848;8.924;2023-02-11T01:26:57;99312.47;;;12.72;100.00
8697;BME280;4385;48.848;8.924;2023-02-11T01:29:22;99310.75;;;12.71;100.00
8697;BME280;4385;48.848;8.924;2023-02-11T01:31:47;99306.47;;;12.68;100.00
8697;BME280;4385;48.848;8.924;2023-02-11T01:34:13;99309.84;;;12.69;100.00
8697;BME280;4385;48.848;8.924;2023-02-11T01:36:39;99308.13;;;12.68;100.00
8697;BME280;4385;48.848;8.924;2023-02-11T01:39:04;99303.91;;;12.67;100.00
8697;BME280;4385;48.848;8.924;2023-02-11T01:41:30;99303.91;;;12.67;100.00
8697;BME280;4385;48.848;8.924;2023-02-11T01:43:55;99306.47;;;12.68;100.00
8697;BME280;4385;48.848;8.924;2023-02-11T01:46:34;99297.19;;;12.69;100.00
8697;BME280;4385;48.848;8.924;2023-02-11T01:49:10;99305.66;;;12.69;100.00
8697;BME280;4385;48.848;8.924;2023-02-11T01:51:39;99302.25;;;12.69;100.00
8697;BME280;4385;48.848;8.924;2023-02-11T01:54:08;99299.78;;;12.70;100.00
8697;BME280;4385;48.848;8.924;2023-02-11T01:56:56;99308.28;;;12.72;100.00
8697;BME280;4385;48.848;8.924;2023-02-11T01:59:53;99290.53;;;12.71;100.00
8697;BME280;4385;48.848;8.924;2023-02-11T02:02:26;99289.75;;;12.74;100.00
8697;BME280;4385;48.848;8.924;2023-02-11T02:05:01;99296.53;;;12.75;100.00
8697;BME280;4385;48.848;8.924;2023-02-11T02:07:43;99297.38;;;12.75;100.00
8697;BME280;4385;48.848;8.924;2023-02-11T02:10:13;99293.22;;;12.77;100.00
8697;BME280;4385;48.848;8.924;2023-02-11T02:12:40;99281.41;;;12.76;100.00
8697;BME280;4385;48.848;8.924;2023-02-11T02:17:56;99275.44;;;12.74;100.00
8697;BME280;4385;48.848;8.924;2023-02-11T02:23:16;99277.03;;;12.72;100.00
8697;BME280;4385;48.848;8.924;2023-02-11T02:31:29;99266.09;;;12.71;100.00
8697;BME280;4385;48.848;8.924;2023-02-11T02:34:18;99264.41;;;12.72;100.00
8697;BME280;4385;48.848;8.924;2023-02-11T02:37:04;99267.75;;;12.71;100.00
8697;BME280;4385;48.848;8.924;2023-02-11T02:39:34;99262.66;;;12.69;100.00
8697;BME280;4385;48.848;8.924;2023-02-11T02:42:01;99260.06;;;12.68;100.00
8697;BME280;4385;48.848;8.924;2023-02-11T02:44:28;99260.94;;;12.68;100.00
8697;BME280;4385;48.848;8.924;2023-02-11T02:46:54;99260.16;;;12.71;100.00
8697;BME280;4385;48.848;8.924;2023-02-11T02:49:20;99261.03;;;12.71;100.00
8697;BME280;4385;48.848;8.924;2023-02-11T02:52:19;99259.38;;;12.74;100.00
8697;BME280;4385;48.848;8.924;2023-02-11T02:55:06;99254.38;;;12.75;100.00
8697;BME280;4385;48.848;8.924;2023-02-11T03:07:02;99239.31;;;12.80;100.00
8697;BME280;4385;48.848;8.924;2023-02-11T03:09:36;99233.41;;;12.79;100.00
8697;BME280;4385;48.848;8.924;2023-02-11T03:12:04;99240.16;;;12.79;100.00
8697;BME280;4385;48.848;8.924;2023-02-11T03:14:31;99239.28;;;12.78;100.00
8697;BME280;4385;48.848;8.924;2023-02-11T03:17:00;99227.50;;;12.79;100.00
8697;BME280;4385;48.848;8.924;2023-02-11T03:19:32;99202.19;;;12.79;100.00
8697;BME280;4385;48.848;8.924;2023-02-11T03:22:02;99199.72;;;12.80;100.00
8697;BME280;4385;48.848;8.924;2023-02-11T03:24:32;99206.47;;;12.81;100.00
8697;BME280;4385;48.848;8.924;2023-02-11T03:27:09;99200.53;;;12.79;100.00
8697;BME280;4385;48.848;8.924;2023-02-11T03:29:43;99209.75;;;12.77;100.00
8697;BME280;4385;48.848;8.924;2023-02-11T03:32:18;99221.44;;;12.74;100.00
8697;BME280;4385;48.848;8.924;2023-02-11T03:34:52;99222.22;;;12.71;100.00
8697;BME280;4385;48.848;8.924;2023-02-11T03:37:42;99221.22;;;12.66;100.00
8697;BME280;4385;48.848;8.924;2023-02-11T03:40:12;99212.75;;;12.64;100.00
8697;BME280;4385;48.848;8.924;2023-02-11T03:42:51;99228.75;;;12.64;100.00
8697;BME280;4385;48.848;8.924;2023-02-11T03:45:20;99220.38;;;12.65;100.00
8697;BME280;4385;48.848;8.924;2023-02-11T03:47:59;99223.75;;;12.66;100.00
8697;BME280;4385;48.848;8.924;2023-02-11T03:50:27;99216.16;;;12.66;100.00
8697;BME280;4385;48.848;8.924;2023-02-11T03:52:55;99216.25;;;12.69;100.00
8697;BME280;4385;48.848;8.924;2023-02-11T03:55:22;99212.91;;;12.70;100.00
8697;BME280;4385;48.848;8.924;2023-02-11T03:57:50;99206.16;;;12.70;100.00
8697;BME280;4385;48.848;8.924;2023-02-11T04:00:15;99211.28;;;12.72;100.00
8697;BME280;4385;48.848;8.924;2023-02-11T04:02:41;99223.16;;;12.75;100.00
8697;BME280;4385;48.848;8.924;2023-02-11T04:05:09;99220.69;;;12.76;100.00
8697;BME280;4385;48.848;8.924;2023-02-11T04:07:35;99227.44;;;12.77;100.00
8697;BME280;4385;48.848;8.924;2023-02-11T04:10:00;99230.91;;;12.79;100.00
8697;BME280;4385;48.848;8.924;2023-02-11T04:12:26;99230.06;;;12.80;100.00
8697;BME280;4385;48.848;8.924;2023-02-11T04:14:51;99231.78;;;12.81;100.00
8697;BME280;4385;48.848;8.924;2023-02-11T04:17:16;99236.03;;;12.82;100.00
8697;BME280;4385;48.848;8.924;2023-02-11T04:19:42;99234.31;;;12.81;100.00
8697;BME280;4385;48.848;8.924;2023-02-11T04:22:07;99241.06;;;12.81;100.00
8697;BME280;4385;48.848;8.924;2023-02-11T04:24:33;99236.75;;;12.78;100.00
8697;BME280;4385;48.848;8.924;2023-02-11T04:26:59;99232.47;;;12.76;100.00
8697;BME280;4385;48.848;8.924;2023-02-11T04:29:25;99231.59;;;12.75;100.00
8697;BME280;4385;48.848;8.924;2023-02-11T04:31:50;99223.91;;;12.72;100.00
8697;BME280;4385;48.848;8.924;2023-02-11T04:34:16;99222.16;;;12.69;100.00
8697;BME280;4385;48.848;8.924;2023-02-11T04:36:42;99217.03;;;12.66;100.00
8697;BME280;4385;48.848;8.924;2023-02-11T04:39:07;99217.81;;;12.64;100.00
8697;BME280;4385;48.848;8.924;2023-02-11T04:41:32;99217.81;;;12.64;100.00
8697;BME280;4385;48.848;8.924;2023-02-11T04:43:58;99217.81;;;12.64;100.00
8697;BME280;4385;48.848;8.924;2023-02-11T04:46:23;99217.03;;;12.66;100.00
8697;BME280;4385;48.848;8.924;2023-02-11T04:48:48;99225.47;;;12.67;100.00
8697;BME280;4385;48.848;8.924;2023-02-11T04:51:14;99224.66;;;12.68;100.00
8697;BME280;4385;48.848;8.924;2023-02-11T04:53:39;99231.50;;;12.72;100.00
8697;BME280;4385;48.848;8.924;2023-02-11T04:56:05;99222.31;;;12.74;100.00
8697;BME280;4385;48.848;8.924;2023-02-11T04:58:31;99216.41;;;12.75;100.00
8697;BME280;4385;48.848;8.924;2023-02-11T05:01:04;99215.63;;;12.76;100.00
8697;BME280;4385;48.848;8.924;2023-02-11T05:03:30;99218.25;;;12.79;100.00
8697;BME280;4385;48.848;8.924;2023-02-11T05:05:55;99211.53;;;12.81;100.00
8697;BME280;4385;48.848;8.924;2023-02-11T05:08:20;99212.44;;;12.83;100.00
8697;BME280;4385;48.848;8.924;2023-02-11T05:10:46;99210.81;;;12.86;100.00
8697;BME280;4385;48.848;8.924;2023-02-11T05:13:12;99210.00;;;12.87;100.00
8697;BME280;4385;48.848;8.924;2023-02-11T05:15:37;99199.06;;;12.88;100.00
8697;BME280;4385;48.848;8.924;2023-02-11T05:18:02;99191.47;;;12.88;100.00
8697;BME280;4385;48.848;8.924;2023-02-11T05:20:28;99170.38;;;12.87;100.00
8697;BME280;4385;48.848;8.924;2023-02-11T05:22:53;99169.47;;;12.85;100.00
8697;BME280;4385;48.848;8.924;2023-02-11T05:25:18;99165.25;;;12.84;100.00
8697;BME280;4385;48.848;8.924;2023-02-11T05:27:44;99163.47;;;12.81;100.00
8697;BME280;4385;48.848;8.924;2023-02-11T05:30:10;99158.34;;;12.80;100.00
8697;BME280;4385;48.848;8.924;2023-02-11T05:32:36;99151.56;;;12.77;100.00
8697;BME280;4385;48.848;8.924;2023-02-11T05:35:01;99159.06;;;12.74;100.00
8697;BME280;4385;48.848;8.924;2023-02-11T05:37:26;99149.72;;;12.71;100.00
8697;BME280;4385;48.848;8.924;2023-02-11T05:39:52;99143.75;;;12.69;100.00
8697;BME280;4385;48.848;8.924;2023-02-11T05:42:17;99153.03;;;12.70;100.00
8697;BME280;4385;48.848;8.924;2023-02-11T05:44:42;99151.38;;;12.71;100.00
8697;BME280;4385;48.848;8.924;2023-02-11T05:47:07;99168.31;;;12.74;100.00
8697;BME280;4385;48.848;8.924;2023-02-11T05:49:33;99179.28;;;12.74;100.00
8697;BME280;4385;48.848;8.924;2023-02-11T05:51:58;99181.00;;;12.75;100.00
8697;BME280;4385;48.848;8.924;2023-02-11T05:54:24;99189.50;;;12.77;100.00
8697;BME280;4385;48.848;8.924;2023-02-11T05:56:49;99171.84;;;12.79;100.00
8697;BME280;4385;48.848;8.924;2023-02-11T05:59:14;99182.81;;;12.79;100.00
8697;BME280;4385;48.848;8.924;2023-02-11T06:01:40;99180.28;;;12.79;100.00
8697;BME280;4385;48.848;8.924;2023-02-11T06:04:05;99182.91;;;12.82;100.00
8697;BME280;4385;48.848;8.924;2023-02-11T06:06:30;99184.63;;;12.83;100.00
8697;BME280;4385;48.848;8.924;2023-02-11T06:08:56;99193.13;;;12.86;100.00
8697;BME280;4385;48.848;8.924;2023-02-11T06:11:21;99191.47;;;12.88;100.00
8697;BME280;4385;48.848;8.924;2023-02-11T06:13:46;99197.44;;;12.90;100.00
8697;BME280;4385;48.848;8.924;2023-02-11T06:16:11;99196.59;;;12.91;100.00
8697;BME280;4385;48.848;8.924;2023-02-11T06:18:37;99200.00;;;12.91;100.00
8697;BME280;4385;48.848;8.924;2023-02-11T06:21:06;99195.78;;;12.90;100.00
8697;BME280;4385;48.848;8.924;2023-02-11T06:23:32;99200.75;;;12.87;100.00
8697;BME280;4385;48.848;8.924;2023-02-11T06:26:02;99190.59;;;12.86;100.00
8697;BME280;4385;48.848;8.924;2023-02-11T06:28:28;99182.91;;;12.82;100.00
8697;BME280;4385;48.848;8.924;2023-02-11T06:30:55;99182.00;;;12.80;100.00
8697;BME280;4385;48.848;8.924;2023-02-11T06:33:21;99184.47;;;12.79;100.00
8697;BME280;4385;48.848;8.924;2023-02-11T06:35:46;99182.72;;;12.76;100.00
8697;BME280;4385;48.848;8.924;2023-02-11T06:38:11;99181.00;;;12.75;100.00
8697;BME280;4385;48.848;8.924;2023-02-11T06:40:37;99176.72;;;12.72;100.00
8697;BME280;4385;48.848;8.924;2023-02-11T06:43:02;99189.38;;;12.72;100.00
8697;BME280;4385;48.848;8.924;2023-02-11T06:45:27;99194.47;;;12.74;100.00
8697;BME280;4385;48.848;8.924;2023-02-11T06:47:53;99190.38;;;12.78;100.00
8697;BME280;4385;48.848;8.924;2023-02-11T06:50:18;99193.03;;;12.82;100.00
8697;BME280;4385;48.848;8.924;2023-02-11T06:52:43;99194.00;;;12.88;100.00
8697;BME280;4385;48.848;8.924;2023-02-11T06:55:09;99195.00;;;12.93;100.00
8697;BME280;4385;48.848;8.924;2023-02-11T06:57:34;99200.22;;;12.99;100.00
8697;BME280;4385;48.848;8.924;2023-02-11T06:59:59;99197.84;;;13.05;100.00
8697;BME280;4385;48.848;8.924;2023-02-11T07:02:24;99199.69;;;13.11;100.00
8697;BME280;4385;48.848;8.924;2023-02-11T07:04:50;99207.44;;;13.17;100.00
8697;BME280;4385;48.848;8.924;2023-02-11T07:07:15;99205.03;;;13.22;100.00
8697;BME280;4385;48.848;8.924;2023-02-11T07:09:40;99197.53;;;13.25;100.00
8697;BME280;4385;48.848;8.924;2023-02-11T07:12:08;99189.13;;;13.26;100.00
8697;BME280;4385;48.848;8.924;2023-02-11T07:14:34;99189.97;;;13.27;100.00
8697;BME280;4385;48.848;8.924;2023-02-11T07:16:59;99188.31;;;13.27;100.00
8697;BME280;4385;48.848;8.924;2023-02-11T07:19:24;99189.13;;;13.26;100.00
8697;BME280;4385;48.848;8.924;2023-02-11T07:21:50;99191.66;;;13.26;100.00
8697;BME280;4385;48.848;8.924;2023-02-11T07:24:15;99189.06;;;13.23;100.00
8697;BME280;4385;48.848;8.924;2023-02-11T07:26:40;99190.69;;;13.21;100.00
8697;BME280;4385;48.848;8.924;2023-02-11T07:29:06;99200.72;;;13.18;100.00
8697;BME280;4385;48.848;8.924;2023-02-11T07:31:31;99216.69;;;13.15;100.00
8697;BME280;4385;48.848;8.924;2023-02-11T07:33:59;99215.78;;;13.13;100.00
8697;BME280;4385;48.848;8.924;2023-02-11T07:36:26;99221.69;;;13.12;100.00
8697;BME280;4385;48.848;8.924;2023-02-11T07:38:52;99230.09;;;13.13;100.00
8697;BME280;4385;48.848;8.924;2023-02-11T07:41:19;99226.75;;;13.12;100.00
8697;BME280;4385;48.848;8.924;2023-02-11T07:43:45;99234.38;;;13.14;100.00
8697;BME280;4385;48.848;8.924;2023-02-11T07:46:16;99233.50;;;13.13;100.00
8697;BME280;4385;48.848;8.924;2023-02-11T07:48:42;99220.88;;;13.15;100.00
8697;BME280;4385;48.848;8.924;2023-02-11T07:51:10;99222.63;;;13.17;100.00
8697;BME280;4385;48.848;8.924;2023-02-11T07:53:35;99210.03;;;13.19;100.00
8697;BME280;4385;48.848;8.924;2023-02-11T07:56:05;99206.69;;;13.20;100.00
8697;BME280;4385;48.848;8.924;2023-02-11T07:58:30;99207.56;;;13.22;100.00
8697;BME280;4385;48.848;8.924;2023-02-11T08:01:00;99207.66;;;13.25;100.00
8697;BME280;4385;48.848;8.924;2023-02-11T08:03:26;99189.97;;;13.27;100.00
8697;BME280;4385;48.848;8.924;2023-02-11T08:05:51;99192.53;;;13.28;100.00
8697;BME280;4385;48.848;8.924;2023-02-11T08:08:17;99191.75;;;13.29;100.00
8697;BME280;4385;48.848;8.924;2023-02-11T08:10:42;99194.28;;;13.29;100.00
8697;BME280;4385;48.848;8.924;2023-02-11T08:13:07;99194.31;;;13.31;100.00
8697;BME280;4385;48.848;8.924;2023-02-11T08:15:32;99195.97;;;13.30;100.00
8697;BME280;4385;48.848;8.924;2023-02-11T08:17:58;99185.84;;;13.30;100.00
8697;BME280;4385;48.848;8.924;2023-02-11T08:20:23;99191.00;;;13.33;100.00
8697;BME280;4385;48.848;8.924;2023-02-11T08:22:48;99196.06;;;13.33;100.00
8697;BME280;4385;48.848;8.924;2023-02-11T08:25:14;99196.84;;;13.31;100.00
8697;BME280;4385;48.848;8.924;2023-02-11T08:27:39;99195.06;;;13.28;100.00
8697;BME280;4385;48.848;8.924;2023-02-11T08:30:04;99196.69;;;13.25;100.00
8697;BME280;4385;48.848;8.924;2023-02-11T08:32:30;99200.81;;;13.21;100.00
8697;BME280;4385;48.848;8.924;2023-02-11T08:34:55;99200.72;;;13.18;100.00
8697;BME280;4385;48.848;8.924;2023-02-11T08:37:20;99193.03;;;13.15;100.00
8697;BME280;4385;48.848;8.924;2023-02-11T08:39:46;99193.00;;;13.13;100.00
8697;BME280;4385;48.848;8.924;2023-02-11T08:42:12;99182.88;;;13.13;100.00
8697;BME280;4385;48.848;8.924;2023-02-11T08:44:39;99177.03;;;13.16;100.00
8697;BME280;4385;48.848;8.924;2023-02-11T08:47:04;99186.34;;;13.17;100.00
8697;BME280;4385;48.848;8.924;2023-02-11T08:49:30;99191.47;;;13.18;100.00
8697;BME280;4385;48.848;8.924;2023-02-11T08:51:56;99184.75;;;13.20;100.00
8697;BME280;4385;48.848;8.924;2023-02-11T08:54:26;99185.66;;;13.22;100.00
8697;BME280;4385;48.848;8.924;2023-02-11T08:56:51;99193.31;;;13.26;100.00
8697;BME280;4385;48.848;8.924;2023-02-11T08:59:17;99191.69;;;13.28;100.00
8697;BME280;4385;48.848;8.924;2023-02-11T09:01:42;99194.31;;;13.31;100.00
8697;BME280;4385;48.848;8.924;2023-02-11T09:04:09;99203.66;;;13.33;100.00
8697;BME280;4385;48.848;8.924;2023-02-11T09:06:34;99202.84;;;13.34;100.00
8697;BME280;4385;48.848;8.924;2023-02-11T09:09:00;99199.50;;;13.36;100.00
8697;BME280;4385;48.848;8.924;2023-02-11T09:11:31;99196.22;;;13.40;100.00
8697;BME280;4385;48.848;8.924;2023-02-11T09:13:58;99191.31;;;13.46;100.00
8697;BME280;4385;48.848;8.924;2023-02-11T09:16:26;99186.44;;;13.52;100.00
8697;BME280;4385;48.848;8.924;2023-02-11T09:18:52;99183.16;;;13.56;100.00
8697;BME280;4385;48.848;8.924;2023-02-11T09:21:20;99184.06;;;13.58;100.00
8697;BME280;4385;48.848;8.924;2023-02-11T09:23:45;99182.38;;;13.59;100.00
8697;BME280;4385;48.848;8.924;2023-02-11T09:26:18;99187.41;;;13.57;100.00
8697;BME280;4385;48.848;8.924;2023-02-11T09:28:44;99183.97;;;13.55;100.00
8697;BME280;4385;48.848;8.924;2023-02-11T09:31:13;99177.22;;;13.54;100.00
8697;BME280;4385;48.848;8.924;2023-02-11T09:33:40;99181.44;;;13.55;100.00
8697;BME280;4385;48.848;8.924;2023-02-11T09:36:13;99175.63;;;13.59;100.00
8697;BME280;4385;48.848;8.924;2023-02-11T09:38:39;99186.81;;;13.68;100.00
8697;BME280;4385;48.848;8.924;2023-02-11T09:41:04;99187.88;;;13.76;100.00
8697;BME280;4385;48.848;8.924;2023-02-11T09:43:43;99190.56;;;13.82;100.00
8697;BME280;4385;48.848;8.924;2023-02-11T09:46:14;99189.88;;;13.90;100.00
8697;BME280;4385;48.848;8.924;2023-02-11T09:48:42;99194.19;;;13.94;100.00
8697;BME280;4385;48.848;8.924;2023-02-11T09:51:23;99192.63;;;13.99;100.00
8697;BME280;4385;48.848;8.924;2023-02-11T09:53:55;99206.28;;;14.04;100.00
8697;BME280;4385;48.848;8.924;2023-02-11T09:56:23;99203.81;;;14.07;100.00
8697;BME280;4385;48.848;8.924;2023-02-11T09:58:49;99206.34;;;14.07;100.00
8697;BME280;4385;48.848;8.924;2023-02-11T10:12:23;99210.25;;;14.31;100.00
8697;BME280;4385;48.848;8.924;2023-02-11T10:15:13;99208.63;;;14.35;100.00
8697;BME280;4385;48.848;8.924;2023-02-11T10:18:07;99217.13;;;14.36;100.00
8697;BME280;4385;48.848;8.924;2023-02-11T10:20:48;99216.31;;;14.38;100.00
8697;BME280;4385;48.848;8.924;2023-02-11T10:23:24;99216.41;;;14.43;100.00
8697;BME280;4385;48.848;8.924;2023-02-11T10:25:52;99219.03;;;14.46;100.00
8697;BME280;4385;48.848;8.924;2023-02-11T10:28:22;99218.19;;;14.47;100.00
8697;BME280;4385;48.848;8.924;2023-02-11T10:31:07;99225.03;;;14.50;100.00
8697;BME280;4385;48.848;8.924;2023-02-11T10:33:45;99222.56;;;14.53;100.00
8697;BME280;4385;48.848;8.924;2023-02-11T10:36:12;99211.59;;;14.55;100.00
8697;BME280;4385;48.848;8.924;2023-02-11T10:38:38;99209.19;;;14.62;100.00
8697;BME280;4385;48.848;8.924;2023-02-11T10:41:04;99206.06;;;14.74;100.00
8697;BME280;4385;48.848;8.924;2023-02-11T10:43:31;99216.41;;;14.81;100.00
8697;BME280;4385;48.848;8.924;2023-02-11T10:45:58;99210.59;;;14.87;100.00
8697;BME280;4385;48.848;8.924;2023-02-11T10:51:27;99196.50;;;15.03;100.00
8697;BME280;4385;48.848;8.924;2023-02-11T10:56:34;99179.84;;;15.18;100.00
8697;BME280;4385;48.848;8.924;2023-02-11T10:59:06;99171.50;;;15.25;100.00
8697;BME280;4385;48.848;8.924;2023-02-11T11:01:40;99173.34;;;15.32;100.00
8697;BME280;4385;48.848;8.924;2023-02-11T11:04:31;99171.72;;;15.38;100.00
8697;BME280;4385;48.848;8.924;2023-02-11T11:07:25;99172.69;;;15.44;100.00
8697;BME280;4385;48.848;8.924;2023-02-11T11:09:56;99166.75;;;15.44;100.00
8697;BME280;4385;48.848;8.924;2023-02-11T11:15:22;99171.03;;;15.45;100.00
8697;BME280;4385;48.848;8.924;2023-02-11T11:17:49;99166.81;;;15.47;100.00
8697;BME280;4385;48.848;8.924;2023-02-11T11:20:20;99170.22;;;15.48;100.00
8697;BME280;4385;48.848;8.924;2023-02-11T11:22:47;99169.41;;;15.50;100.00
8697;BME280;4385;48.848;8.924;2023-02-11T11:27:52;99171.97;;;15.52;100.00
8697;BME280;4385;48.848;8.924;2023-02-11T11:30:18;99171.16;;;15.53;100.00
8697;BME280;4385;48.848;8.924;2023-02-11T11:32:44;99166.91;;;15.53;100.00
8697;BME280;4385;48.848;8.924;2023-02-11T11:35:27;99165.25;;;15.55;100.00
8697;BME280;4385;48.848;8.924;2023-02-11T11:38:01;99168.75;;;15.61;100.00
8697;BME280;4385;48.848;8.924;2023-02-11T11:40:29;99172.16;;;15.64;100.00
8697;BME280;4385;48.848;8.924;2023-02-11T11:45:26;99169.56;;;15.61;100.00
8697;BME280;4385;48.848;8.924;2023-02-11T11:50:39;99157.81;;;15.66;100.00
8697;BME280;4385;48.848;8.924;2023-02-11T11:53:13;99163.72;;;15.65;100.00
8697;BME280;4385;48.848;8.924;2023-02-11T11:55:44;99163.66;;;15.61;100.00
8697;BME280;4385;48.848;8.924;2023-02-11T11:58:19;99162.78;;;15.60;100.00
8697;BME280;4385;48.848;8.924;2023-02-11T12:00:53;99151.81;;;15.63;100.00
8697;BME280;4385;48.848;8.924;2023-02-11T12:08:59;99152.78;;;15.71;100.00
8697;BME280;4385;48.848;8.924;2023-02-11T12:14:39;99149.47;;;15.77;100.00
8697;BME280;4385;48.848;8.924;2023-02-11T12:23:10;99157.03;;;15.72;100.00
8697;BME280;4385;48.848;8.924;2023-02-11T12:26:00;99159.56;;;15.72;100.00
8697;BME280;4385;48.848;8.924;2023-02-11T12:40:15;99146.88;;;15.72;100.00
8697;BME280;4385;48.848;8.924;2023-02-11T12:46:01;99158.72;;;15.70;100.00
8697;BME280;4385;48.848;8.924;2023-02-11T12:48:51;99155.25;;;15.65;100.00
8697;BME280;4385;48.848;8.924;2023-02-11T12:51:44;99156.88;;;15.63;100.00
8697;BME280;4385;48.848;8.924;2023-02-11T12:56:59;99162.78;;;15.60;100.00
8697;BME280;4385;48.848;8.924;2023-02-11T13:02:32;99155.13;;;15.58;100.00
8697;BME280;4385;48.848;8.924;2023-02-11T13:05:07;99155.97;;;15.57;100.00
8697;BME280;4385;48.848;8.924;2023-02-11T13:07:40;99148.34;;;15.57;100.00
8697;BME280;4385;48.848;8.924;2023-02-11T13:12:55;99134.72;;;15.54;100.00
8697;BME280;4385;48.848;8.924;2023-02-11T13:15:41;99130.50;;;15.53;100.00
8697;BME280;4385;48.848;8.924;2023-02-11T13:18:26;99141.44;;;15.50;100.00
8697;BME280;4385;48.848;8.924;2023-02-11T13:26:35;99132.84;;;15.42;100.00
8697;BME280;4385;48.848;8.924;2023-02-11T13:31:41;99129.31;;;15.33;100.00
8697;BME280;4385;48.848;8.924;2023-02-11T13:34:55;99129.31;;;15.33;100.00
8697;BME280;4385;48.848;8.924;2023-02-11T13:40:06;99126.78;;;15.33;100.00
8697;BME280;4385;48.848;8.924;2023-02-11T13:42:33;99124.28;;;15.35;100.00
8697;BME280;4385;48.848;8.924;2023-02-11T13:48:03;99119.22;;;15.37;100.00
8697;BME280;4385;48.848;8.924;2023-02-11T13:50:32;99115.84;;;15.38;100.00
8697;BME280;4385;48.848;8.924;2023-02-11T13:53:04;99124.34;;;15.40;100.00
8697;BME280;4385;48.848;8.924;2023-02-11T13:55:32;99117.63;;;15.42;100.00
8697;BME280;4385;48.848;8.924;2023-02-11T14:03:22;99124.50;;;15.49;100.00
8697;BME280;4385;48.848;8.924;2023-02-11T14:14:19;99118.56;;;15.50;100.00
8697;BME280;4385;48.848;8.924;2023-02-11T14:19:37;99116.84;;;15.48;100.00
8697;BME280;4385;48.848;8.924;2023-02-11T14:22:14;99111.78;;;15.48;100.00
8697;BME280;4385;48.848;8.924;2023-02-11T14:24:58;99115.25;;;15.53;100.00
8697;BME280;4385;48.848;8.924;2023-02-11T14:33:02;99110.03;;;15.43;100.00
8697;BME280;4385;48.848;8.924;2023-02-11T14:35:38;99118.41;;;15.39;100.00
8697;BME280;4385;48.848;8.924;2023-02-11T14:41:19;99134.44;;;15.35;100.00
8697;BME280;4385;48.848;8.924;2023-02-11T14:43:49;99124.25;;;15.33;100.00
8697;BME280;4385;48.848;8.924;2023-02-11T14:46:18;99118.31;;;15.34;100.00
8697;BME280;4385;48.848;8.924;2023-02-11T14:48:46;99117.50;;;15.36;100.00
8697;BME280;4385;48.848;8.924;2023-02-11T14:51:22;99121.78;;;15.38;100.00
8697;BME280;4385;48.848;8.924;2023-02-11T14:53:52;99127.75;;;15.40;100.00
8697;BME280;4385;48.848;8.924;2023-02-11T14:56:26;99133.66;;;15.41;100.00
8697;BME280;4385;48.848;8.924;2023-02-11T14:58:53;99137.06;;;15.41;100.00
8697;BME280;4385;48.848;8.924;2023-02-11T15:01:33;99138.78;;;15.42;100.00
8697;BME280;4385;48.848;8.924;2023-02-11T15:04:02;99142.19;;;15.43;100.00
8697;BME280;4385;48.848;8.924;2023-02-11T15:06:31;99142.22;;;15.44;100.00
8697;BME280;4385;48.848;8.924;2023-02-11T15:09:12;99141.34;;;15.44;100.00
8697;BME280;4385;48.848;8.924;2023-02-11T15:11:40;99137.94;;;15.42;100.00
8697;BME280;4385;48.848;8.924;2023-02-11T15:14:09;99148.09;;;15.42;100.00
8697;BME280;4385;48.848;8.924;2023-02-11T15:16:40;99144.66;;;15.38;100.00
8697;BME280;4385;48.848;8.924;2023-02-11T15:19:17;99148.00;;;15.36;100.00
8697;BME280;4385;48.848;8.924;2023-02-11T15:21:44;99156.44;;;15.34;100.00
8697;BME280;4385;48.848;8.924;2023-02-11T15:24:30;99150.47;;;15.31;100.00
8697;BME280;4385;48.848;8.924;2023-02-11T15:27:02;99148.69;;;15.28;100.00